Nearby METAR Reports

 

EGEO - Oban, United Kingdom
Distance from station: SSW 18mi, 30km
Updated: 25/02/2018 16:20
NOT Current
Clear
Clear
 Wind from ESE
Wind: ESE 9 mph , 15 km/h
Temperature: 7°C
Wind Chill: 4°C
Dew Point: -3°C
Humidity: 49%
Barometer: 1029 hPa
Summary: Clear
Visibility: greater than 7 miles , 10 km
2018/02/25 16:20 EGEO 251620Z 11008KT 070V140 CAVOK 07/M03 Q1029
EGPU - Tiree, United Kingdom
Distance from station: WSW 64mi, 103km
Updated: 26/02/2018 00:50
Clear
Clear
 Wind from SE
Wind: SE 25 mph , 41 km/h
Temperature: 3°C
Wind Chill: -4°C
Dew Point: 0°C
Humidity: 81%
Barometer: 1032 hPa
Clouds: Clear
Visibility: 6 miles , 10 km
2018/02/26 00:50 EGPU 260050Z AUTO 13022KT 9999 NCD 03/M00 Q1032
EGPF - Glasgow, United Kingdom
Distance from station: SSE 66mi, 107km
Updated: 26/02/2018 01:20
Clear
Clear
 Wind from ENE
Wind: ENE 7 mph , 11 km/h
Temperature: -2°C
Wind Chill: -6°C
Dew Point: -5°C
Humidity: 80%
Barometer: 1035 hPa
Clouds: Clear
Visibility: 6 miles , 10 km
2018/02/26 01:20 EGPF 260120Z AUTO 07006KT 9999 NCD M02/M05 Q1035
 
EGPE - Inverness, United Kingdom
Distance from station: NE 71mi, 114km
Updated: 26/02/2018 01:20
Partly cloudy
Partly cloudy
 Wind from varies
Wind: varies 3 mph , 6 km/h
Temperature: -3°C
Dew Point: -3°C
Humidity: 100%
Barometer: 1035 hPa
Clouds: Partly cloudy
Visibility: 6 miles , 10 km
Cloud details: Partly cloudy 1494 m
2018/02/26 01:20 EGPE 260120Z AUTO VRB03KT 9999 SCT049/// M03/M03 Q1035
EGPI - Islay/Port Ellen, United Kingdom
Distance from station: SSW 81mi, 131km
Updated: 26/02/2018 00:50
Clear
Clear
 Wind from ESE
Wind: ESE 15 mph , 24 km/h
Temperature: 1°C
Wind Chill: -4°C
Dew Point: -1°C
Humidity: 87%
Barometer: 1032 hPa
Clouds: Clear
Visibility: 6 miles , 10 km
2018/02/26 00:50 EGPI 260050Z AUTO 11013KT 9999 NCD 01/M01 Q1032
EGPN - Dundee/Riverside, United Kingdom
Distance from station: E 86mi, 138km
Updated: 25/02/2018 20:50
NOT Current
Mostly cloudy
Mostly cloudy
 Wind from SE
Wind: SE 8 mph , 13 km/h
Temperature: 4°C
Wind Chill: 1°C
Dew Point: -1°C
Humidity: 70%
Barometer: 1034 hPa
Clouds: Mostly cloudy
Visibility: 6 miles , 10 km
Cloud details: Mostly cloudy 975 m
2018/02/25 20:50 EGPN 252050Z 14007KT 9999 BKN032 04/M01 Q1034
 
EGPK - Prestwick, United Kingdom
Distance from station: SSE 88mi, 141km
Updated: 26/02/2018 00:50
Few Clouds
Few Clouds
 Wind from ESE
Wind: ESE 8 mph , 13 km/h
Temperature: 0°C
Wind Chill: -4°C
Dew Point: -5°C
Humidity: 69%
Barometer: 1034 hPa
Clouds: Few Clouds
Visibility: 6 miles , 10 km
Cloud details: Few Clouds 1219 m
2018/02/26 00:50 EGPK 260050Z 12007KT 9999 FEW040 M00/M05 Q1034
EGPH - Edinburgh, United Kingdom
Distance from station: SE 89mi, 143km
Updated: 26/02/2018 01:20
Partly cloudy
Partly cloudy
 Wind from ESE
Wind: ESE 5 mph , 7 km/h
Temperature: 0°C
Wind Chill: -3°C
Dew Point: -3°C
Humidity: 80%
Barometer: 1036 hPa
Clouds: Partly cloudy
Visibility: 6 miles , 10 km
Cloud details: Partly cloudy 1006 m
2018/02/26 01:20 EGPH 260120Z 11004KT 9999 SCT033 00/M03 Q1036
EGQK - RAF Kinloss, United Kingdom
Distance from station: NE 90mi, 144km
Updated: 26/02/2018 00:50
Mostly cloudy
Mostly cloudy
 Wind from ESE
Wind: ESE 8 mph , 13 km/h
Temperature: 2°C
Wind Chill: -1°C
Dew Point: -2°C
Humidity: 75%
Barometer: 1035 hPa
Clouds: Mostly cloudy
Visibility: 6 miles , 10 km
Cloud details: Mostly cloudy 1463 m
2018/02/26 00:50 EGQK 260050Z AUTO 11007KT 9999 BKN048/// 02/M02 Q1035
 
EGEC - Campbeltown, United Kingdom
Distance from station: S 90mi, 145km
Updated: 25/02/2018 01:20
NOT Current
Clear
Clear
 Wind from ESE
Wind: ESE 22 mph , 35 km/h
Temperature: 3°C
Wind Chill: -3°C
Dew Point: -4°C
Humidity: 60%
Barometer: 1026 hPa
Summary: Clear
Visibility: greater than 7 miles , 10 km
2018/02/25 01:20 EGEC 250120Z 11019KT CAVOK 03/M04 Q1026
EGQA - Tain Range, United Kingdom
Distance from station: NNE 91mi, 146km
Updated: 23/02/2018 12:50
NOT Current
Clear
Clear
 Wind from S
Wind: S 16 mph , 26 km/h
Summary: Clear
Visibility: greater than 7 miles , 10 km
2018/02/23 12:50 EGQA 231250Z 17014KT CAVOK 05/// Q1020 BLU
EGQL - RAF Leuchars, United Kingdom
Distance from station: ESE 93mi, 149km
Updated: 26/02/2018 00:50
Mostly cloudy
Mostly cloudy
 Wind from SSE
Wind: SSE 12 mph , 19 km/h
Temperature: 2°C
Wind Chill: -2°C
Dew Point: -2°C
Humidity: 75%
Barometer: 1036 hPa
Clouds: Mostly cloudy
Visibility: 6 miles , 10 km
Cloud details: Few Clouds 792 m
Mostly cloudy 1219 m
2018/02/26 00:50 EGQL 260050Z 16010KT 9999 FEW026 BKN040 02/M02 Q1036 BLU
 
EGPL - Benbecula, United Kingdom
Distance from station: WNW 96mi, 154km
Updated: 26/02/2018 01:20
Clear
Clear
 Wind from SSE
Wind: SSE 14 mph , 22 km/h
Temperature: 3°C
Wind Chill: -2°C
Dew Point: 0°C
Humidity: 81%
Barometer: 1032 hPa
Clouds: Clear
Visibility: 6 miles , 10 km
2018/02/26 01:20 EGPL 260120Z AUTO 15012KT 9999 NCD 03/M00 Q1032
EGQS - RAF Lossiemouth, United Kingdom
Distance from station: NE 99mi, 160km
Updated: 26/02/2018 00:50
Clear
Clear
 Wind from ESE
Wind: ESE 7 mph , 11 km/h
Temperature: 2°C
Wind Chill: -1°C
Dew Point: -2°C
Humidity: 75%
Barometer: 1035 hPa
Summary: Clear
Visibility: greater than 7 miles , 10 km
2018/02/26 00:50 EGQS 260050Z 11006KT CAVOK 02/M02 Q1035 BLU
EGPO - Stornoway, United Kingdom
Distance from station: NNW 111mi, 179km
Updated: 26/02/2018 01:20
Clear
Clear
 Wind from SE
Wind: SE 10 mph , 17 km/h
Temperature: 3°C
Wind Chill: -1°C
Dew Point: 0°C
Humidity: 81%
Barometer: 1032 hPa
Clouds: Clear
Visibility: 6 miles , 10 km
2018/02/26 01:20 EGPO 260120Z AUTO 13009KT 9999 NCD 03/M00 Q1032
 
EGPD - Aberdeen/Dyce, United Kingdom
Distance from station: ENE 118mi, 190km
Updated: 26/02/2018 01:20
Mostly cloudy
Mostly cloudy
 Wind from SSE
Wind: SSE 10 mph , 17 km/h
Temperature: 2°C
Wind Chill: -2°C
Dew Point: -1°C
Humidity: 81%
Barometer: 1036 hPa
Clouds: Mostly cloudy
Visibility: 6 miles , 10 km
Cloud details: Few Clouds 671 m
Partly cloudy 945 m
Mostly cloudy 1189 m
2018/02/26 01:20 EGPD 260120Z AUTO 15009KT 9999 FEW022 SCT031 BKN039 02/M01 Q1036 NOSIG
EGAE - Eglinton/Londond, United Kingdom
Distance from station: SSW 138mi, 222km
Updated: 25/02/2018 22:20
NOT Current
Clear
Clear
 Wind from E
Wind: E 7 mph , 11 km/h
Temperature: 3°C
Wind Chill: 0°C
Dew Point: -1°C
Humidity: 75%
Barometer: 1029 hPa
Summary: Clear
Visibility: greater than 7 miles , 10 km
2018/02/25 22:20 EGAE 252220Z 10006KT 070V140 CAVOK 03/M01 Q1029
EGPC - Wick, United Kingdom
Distance from station: NNE 144mi, 232km
Updated: 26/02/2018 01:20
Few Clouds
Few Clouds
 Wind from S
Wind: S 18 mph , 30 km/h, Gust: 30 mph , 48 km/h
Temperature: 3°C
Wind Chill: -3°C
Dew Point: 0°C
Humidity: 81%
Barometer: 1036 hPa
Clouds: Few Clouds
Visibility: 6 miles , 10 km
Cloud details: Few Clouds 457 m
2018/02/26 01:20 EGPC 260120Z AUTO 17016G26KT 9999 FEW015/// 03/00 Q1036

Metar display script from Saratoga-Weather.org